Terminal Aerodrome Forecast
Issued by NWS

Home | Current Version | Previous Version | Text Only | Print | Product List | Glossary On
Versions: 1 2 3 4 5 6 7 8 9 10 11 12 13 14 15 16 17 18
000
FTUS43 KMPX 160907 AAA
TAFAXN
TAF AMD
KAXN 160907Z 1609/1706 10007KT 4SM BR OVC005
     FM161600 09005KT P6SM OVC008
     FM170200 VRB03KT 4SM BR OVC007=

USA.gov is the U.S. government's official web portal to all federal, state and local government web resources and services.